sensor_id;sensor_type;location;lat;lon;timestamp;pressure;altitude;pressure_sealevel;temperature;humidity
38620;BME280;24376;51.986;4.662;2022-09-12T00:02:08;105865.16;;;14.70;66.74
38620;BME280;24376;51.986;4.662;2022-09-12T00:04:33;105900.13;;;14.68;66.72
38620;BME280;24376;51.986;4.662;2022-09-12T00:06:58;105876.19;;;14.66;66.73
38620;BME280;24376;51.986;4.662;2022-09-12T00:09:23;105886.38;;;14.61;66.71
38620;BME280;24376;51.986;4.662;2022-09-12T00:11:49;105873.94;;;14.60;66.72
38620;BME280;24376;51.986;4.662;2022-09-12T00:14:15;105880.81;;;14.58;66.72
38620;BME280;24376;51.986;4.662;2022-09-12T00:16:41;105956.81;;;14.62;66.69
38620;BME280;24376;51.986;4.662;2022-09-12T00:19:06;105944.13;;;14.58;66.70
38620;BME280;24376;51.986;4.662;2022-09-12T00:21:32;105930.81;;;14.57;66.71
38620;BME280;24376;51.986;4.662;2022-09-12T00:23:58;105892.94;;;14.56;66.73
38620;BME280;24376;51.986;4.662;2022-09-12T00:26:23;105976.09;;;14.61;66.70
38620;BME280;24376;51.986;4.662;2022-09-12T00:28:48;105980.28;;;14.59;66.68
38620;BME280;24376;51.986;4.662;2022-09-12T00:31:18;105954.69;;;14.58;66.69
38620;BME280;24376;51.986;4.662;2022-09-12T00:33:44;105937.63;;;14.55;66.68
38620;BME280;24376;51.986;4.662;2022-09-12T00:36:11;105892.94;;;14.56;66.70
38620;BME280;24376;51.986;4.662;2022-09-12T00:38:36;105931.44;;;14.54;66.68
38620;BME280;24376;51.986;4.662;2022-09-12T00:41:05;105907.69;;;14.54;66.68
38620;BME280;24376;51.986;4.662;2022-09-12T00:45:56;105910.88;;;14.50;66.66
38620;BME280;24376;51.986;4.662;2022-09-12T00:48:24;105887.44;;;14.45;66.67
38620;BME280;24376;51.986;4.662;2022-09-12T00:50:52;105826.63;;;14.43;66.69
38620;BME280;24376;51.986;4.662;2022-09-12T00:53:18;105843.13;;;14.41;66.69
38620;BME280;24376;51.986;4.662;2022-09-12T00:55:44;105839.13;;;14.35;66.67
38620;BME280;24376;51.986;4.662;2022-09-12T00:58:13;105811.28;;;14.29;66.68
38620;BME280;24376;51.986;4.662;2022-09-12T01:00:40;105770.38;;;14.24;66.68
38620;BME280;24376;51.986;4.662;2022-09-12T01:03:07;105786.22;;;14.24;66.67
38620;BME280;24376;51.986;4.662;2022-09-12T01:05:33;105789.63;;;14.23;66.68
38620;BME280;24376;51.986;4.662;2022-09-12T01:08:00;105796.75;;;14.24;66.65
38620;BME280;24376;51.986;4.662;2022-09-12T01:10:26;105788.59;;;14.21;66.66
38620;BME280;24376;51.986;4.662;2022-09-12T01:12:51;105804.25;;;14.19;66.65
38620;BME280;24376;51.986;4.662;2022-09-12T01:15:16;105741.88;;;14.20;66.67
38620;BME280;24376;51.986;4.662;2022-09-12T01:20:44;105682.31;;;14.22;66.67
38620;BME280;24376;51.986;4.662;2022-09-12T01:23:27;105557.59;;;14.23;66.73
38620;BME280;24376;51.986;4.662;2022-09-12T01:28:59;105617.44;;;14.24;66.69
38620;BME280;24376;51.986;4.662;2022-09-12T01:31:36;105611.94;;;14.21;66.68
38620;BME280;24376;51.986;4.662;2022-09-12T01:39:26;105554.94;;;14.13;66.69
38620;BME280;24376;51.986;4.662;2022-09-12T01:42:05;105410.47;;;14.08;66.76
38620;BME280;24376;51.986;4.662;2022-09-12T01:44:35;105548.09;;;14.04;66.69
38620;BME280;24376;51.986;4.662;2022-09-12T01:47:08;105515.41;;;14.02;66.70
38620;BME280;24376;51.986;4.662;2022-09-12T01:52:14;105510.53;;;13.97;66.69
38620;BME280;24376;51.986;4.662;2022-09-12T01:54:49;105495.38;;;13.94;66.70
38620;BME280;24376;51.986;4.662;2022-09-12T01:57:18;105487.47;;;13.94;66.69
38620;BME280;24376;51.986;4.662;2022-09-12T01:59:46;105452.16;;;13.92;66.69
38620;BME280;24376;51.986;4.662;2022-09-12T02:04:45;105433.16;;;14.06;66.71
38620;BME280;24376;51.986;4.662;2022-09-12T02:08:01;105403.66;;;14.10;66.71
38620;BME280;24376;51.986;4.662;2022-09-12T02:13:08;105382.84;;;14.03;66.71
38620;BME280;24376;51.986;4.662;2022-09-12T02:15:39;105293.50;;;13.96;66.73
38620;BME280;24376;51.986;4.662;2022-09-12T02:18:06;105367.03;;;13.93;66.71
38620;BME280;24376;51.986;4.662;2022-09-12T02:20:35;105364.41;;;13.93;66.71
38620;BME280;24376;51.986;4.662;2022-09-12T02:23:02;105322.25;;;13.93;66.73
38620;BME280;24376;51.986;4.662;2022-09-12T02:25:29;105315.91;;;13.91;66.76
38620;BME280;24376;51.986;4.662;2022-09-12T02:28:00;105373.88;;;13.91;66.71
38620;BME280;24376;51.986;4.662;2022-09-12T02:30:30;105424.09;;;13.93;66.68
38620;BME280;24376;51.986;4.662;2022-09-12T02:33:08;105321.44;;;13.94;66.74
38620;BME280;24376;51.986;4.662;2022-09-12T02:35:51;105466.25;;;13.93;66.66
38620;BME280;24376;51.986;4.662;2022-09-12T02:40:48;105373.88;;;13.91;66.71
38620;BME280;24376;51.986;4.662;2022-09-12T02:43:13;105412.88;;;13.95;66.69
38620;BME280;24376;51.986;4.662;2022-09-12T02:45:38;105379.41;;;13.94;66.70
38620;BME280;24376;51.986;4.662;2022-09-12T02:50:29;105250.69;;;13.99;66.78
38620;BME280;24376;51.986;4.662;2022-09-12T02:52:54;105517.53;;;14.06;66.65
38620;BME280;24376;51.986;4.662;2022-09-12T02:55:23;105506.19;;;14.07;66.66
38620;BME280;24376;51.986;4.662;2022-09-12T02:57:49;105551.00;;;14.07;66.65
38620;BME280;24376;51.986;4.662;2022-09-12T03:00:14;105438.03;;;14.12;66.68
38620;BME280;24376;51.986;4.662;2022-09-12T03:02:53;105448.34;;;14.09;66.68
38620;BME280;24376;51.986;4.662;2022-09-12T03:05:26;105431.84;;;14.11;66.66
38620;BME280;24376;51.986;4.662;2022-09-12T03:08:06;105425.25;;;14.17;66.68
38620;BME280;24376;51.986;4.662;2022-09-12T03:10:40;105421.81;;;14.18;66.67
38620;BME280;24376;51.986;4.662;2022-09-12T03:13:20;105478.63;;;14.14;66.65
38620;BME280;24376;51.986;4.662;2022-09-12T03:21:25;105454.78;;;14.23;66.67
38620;BME280;24376;51.986;4.662;2022-09-12T03:26:26;105376.72;;;14.25;66.70
38620;BME280;24376;51.986;4.662;2022-09-12T03:28:55;105441.06;;;14.27;66.66
38620;BME280;24376;51.986;4.662;2022-09-12T03:31:21;105467.94;;;14.33;66.66
38620;BME280;24376;51.986;4.662;2022-09-12T03:33:46;105449.22;;;14.30;66.67
38620;BME280;24376;51.986;4.662;2022-09-12T03:36:29;105461.88;;;14.34;66.66
38620;BME280;24376;51.986;4.662;2022-09-12T03:38:55;105396.97;;;14.36;66.69
38620;BME280;24376;51.986;4.662;2022-09-12T03:44:06;105352.94;;;14.35;66.70
38620;BME280;24376;51.986;4.662;2022-09-12T03:46:31;105394.75;;;14.30;66.68
38620;BME280;24376;51.986;4.662;2022-09-12T03:48:56;105385.94;;;14.30;66.68
38620;BME280;24376;51.986;4.662;2022-09-12T03:51:22;105379.84;;;14.31;66.69
38620;BME280;24376;51.986;4.662;2022-09-12T03:53:47;105363.13;;;14.30;66.68
38620;BME280;24376;51.986;4.662;2022-09-12T03:56:12;105349.00;;;14.30;66.70
38620;BME280;24376;51.986;4.662;2022-09-12T03:58:38;105335.03;;;14.31;66.70
38620;BME280;24376;51.986;4.662;2022-09-12T04:01:10;105283.63;;;14.26;66.70
38620;BME280;24376;51.986;4.662;2022-09-12T04:03:37;105296.53;;;14.33;66.70
38620;BME280;24376;51.986;4.662;2022-09-12T04:06:03;105232.19;;;14.31;66.74
38620;BME280;24376;51.986;4.662;2022-09-12T04:08:28;105271.50;;;14.28;66.71
38620;BME280;24376;51.986;4.662;2022-09-12T04:10:53;105224.84;;;14.27;66.73
38620;BME280;24376;51.986;4.662;2022-09-12T04:13:18;105200.84;;;14.24;66.73
38620;BME280;24376;51.986;4.662;2022-09-12T04:15:54;105173.69;;;14.25;66.75
38620;BME280;24376;51.986;4.662;2022-09-12T04:18:19;105163.03;;;14.23;66.75
38620;BME280;24376;51.986;4.662;2022-09-12T04:20:44;105162.13;;;14.23;66.75
38620;BME280;24376;51.986;4.662;2022-09-12T04:23:09;105118.63;;;14.18;66.77
38620;BME280;24376;51.986;4.662;2022-09-12T04:25:34;105046.53;;;14.17;66.81
38620;BME280;24376;51.986;4.662;2022-09-12T04:27:59;105116.56;;;14.14;66.77
38620;BME280;24376;51.986;4.662;2022-09-12T04:30:25;105077.69;;;14.11;66.79
38620;BME280;24376;51.986;4.662;2022-09-12T04:32:50;105057.97;;;14.06;66.79
38620;BME280;24376;51.986;4.662;2022-09-12T04:35:17;105003.06;;;14.00;66.84
38620;BME280;24376;51.986;4.662;2022-09-12T04:37:42;105007.78;;;14.04;66.85
38620;BME280;24376;51.986;4.662;2022-09-12T04:40:08;105044.41;;;14.01;66.82
38620;BME280;24376;51.986;4.662;2022-09-12T04:42:33;105045.09;;;13.99;66.81
38620;BME280;24376;51.986;4.662;2022-09-12T04:44:58;104968.31;;;13.94;66.85
38620;BME280;24376;51.986;4.662;2022-09-12T04:47:24;104977.94;;;13.94;66.83
38620;BME280;24376;51.986;4.662;2022-09-12T04:49:49;105029.63;;;13.92;66.81
38620;BME280;24376;51.986;4.662;2022-09-12T04:52:15;104996.72;;;13.87;66.84
38620;BME280;24376;51.986;4.662;2022-09-12T04:54:40;104970.81;;;13.81;66.85
38620;BME280;24376;51.986;4.662;2022-09-12T04:57:05;104982.91;;;13.79;66.84
38620;BME280;24376;51.986;4.662;2022-09-12T04:59:31;104973.91;;;13.87;66.86
38620;BME280;24376;51.986;4.662;2022-09-12T05:01:56;105037.75;;;13.95;66.82
38620;BME280;24376;51.986;4.662;2022-09-12T05:04:21;104982.28;;;13.93;66.78
38620;BME280;24376;51.986;4.662;2022-09-12T05:06:46;104987.47;;;13.92;66.83
38620;BME280;24376;51.986;4.662;2022-09-12T05:09:12;104975.06;;;13.91;66.85
38620;BME280;24376;51.986;4.662;2022-09-12T05:11:38;104951.13;;;13.88;66.88
38620;BME280;24376;51.986;4.662;2022-09-12T05:14:04;104951.34;;;13.91;66.86
38620;BME280;24376;51.986;4.662;2022-09-12T05:16:29;104959.81;;;13.87;66.89
38620;BME280;24376;51.986;4.662;2022-09-12T05:18:56;104928.97;;;13.85;66.91
38620;BME280;24376;51.986;4.662;2022-09-12T05:21:22;104940.78;;;13.91;66.90
38620;BME280;24376;51.986;4.662;2022-09-12T05:23:51;104916.88;;;13.88;66.93
38620;BME280;24376;51.986;4.662;2022-09-12T05:26:19;104922.13;;;13.88;66.90
38620;BME280;24376;51.986;4.662;2022-09-12T05:28:45;104907.78;;;13.84;66.92
38620;BME280;24376;51.986;4.662;2022-09-12T05:31:24;104911.34;;;13.84;66.94
38620;BME280;24376;51.986;4.662;2022-09-12T05:33:50;104878.00;;;13.85;66.95
38620;BME280;24376;51.986;4.662;2022-09-12T05:36:25;104812.94;;;13.84;67.01
38620;BME280;24376;51.986;4.662;2022-09-12T05:38:51;104842.28;;;14.00;66.97
38620;BME280;24376;51.986;4.662;2022-09-12T05:41:23;104804.59;;;14.01;67.07
38620;BME280;24376;51.986;4.662;2022-09-12T05:43:53;104806.78;;;14.07;67.06
38620;BME280;24376;51.986;4.662;2022-09-12T05:46:22;104817.88;;;14.15;67.07
38620;BME280;24376;51.986;4.662;2022-09-12T05:48:48;104763.00;;;13.97;67.24
38620;BME280;24376;51.986;4.662;2022-09-12T05:51:47;104566.34;;;13.86;67.86
38620;BME280;24376;51.986;4.662;2022-09-12T05:54:06;104673.91;;;13.80;67.36
38620;BME280;24376;51.986;4.662;2022-09-12T05:56:32;104714.19;;;13.79;67.28
38620;BME280;24376;51.986;4.662;2022-09-12T05:58:59;104705.97;;;13.74;67.27
38620;BME280;24376;51.986;4.662;2022-09-12T06:01:25;104705.03;;;13.74;67.26
38620;BME280;24376;51.986;4.662;2022-09-12T06:03:51;104641.94;;;13.75;67.52
38620;BME280;24376;51.986;4.662;2022-09-12T06:06:18;104772.97;;;13.78;67.08
38620;BME280;24376;51.986;4.662;2022-09-12T06:08:44;104819.81;;;13.82;67.01
38620;BME280;24376;51.986;4.662;2022-09-12T06:11:12;104859.00;;;13.89;66.98
38620;BME280;24376;51.986;4.662;2022-09-12T06:13:39;104871.03;;;13.97;66.97
38620;BME280;24376;51.986;4.662;2022-09-12T06:16:14;104955.28;;;14.07;66.88
38620;BME280;24376;51.986;4.662;2022-09-12T06:18:39;104938.47;;;14.17;66.89
38620;BME280;24376;51.986;4.662;2022-09-12T06:21:09;104871.41;;;14.25;66.94
38620;BME280;24376;51.986;4.662;2022-09-12T06:23:34;104936.31;;;14.35;66.88
38620;BME280;24376;51.986;4.662;2022-09-12T06:26:00;104928.97;;;14.43;66.88
38620;BME280;24376;51.986;4.662;2022-09-12T06:28:25;104927.88;;;14.51;66.89
38620;BME280;24376;51.986;4.662;2022-09-12T06:30:51;104936.16;;;14.55;66.88
38620;BME280;24376;51.986;4.662;2022-09-12T06:33:16;104904.13;;;14.62;66.92
38620;BME280;24376;51.986;4.662;2022-09-12T06:35:41;104826.34;;;14.69;66.98
38620;BME280;24376;51.986;4.662;2022-09-12T06:38:07;104865.66;;;14.78;66.95
38620;BME280;24376;51.986;4.662;2022-09-12T06:40:34;104890.00;;;14.85;66.94
38620;BME280;24376;51.986;4.662;2022-09-12T06:43:04;104825.28;;;14.90;67.06
38620;BME280;24376;51.986;4.662;2022-09-12T06:45:29;104813.09;;;14.93;67.08
38620;BME280;24376;51.986;4.662;2022-09-12T06:47:55;104760.97;;;15.02;67.23
38620;BME280;24376;51.986;4.662;2022-09-12T06:50:20;104737.75;;;15.09;67.33
38620;BME280;24376;51.986;4.662;2022-09-12T06:52:47;104690.97;;;15.20;67.50
38620;BME280;24376;51.986;4.662;2022-09-12T06:55:12;104679.28;;;15.30;67.61
38620;BME280;24376;51.986;4.662;2022-09-12T06:57:38;104640.22;;;15.37;67.76
38620;BME280;24376;51.986;4.662;2022-09-12T07:00:05;104606.59;;;15.48;68.01
38620;BME280;24376;51.986;4.662;2022-09-12T07:02:30;104534.03;;;15.56;68.33
38620;BME280;24376;51.986;4.662;2022-09-12T07:04:55;104461.06;;;15.72;68.78
38620;BME280;24376;51.986;4.662;2022-09-12T07:07:21;104381.34;;;15.79;69.24
38620;BME280;24376;51.986;4.662;2022-09-12T07:09:46;104272.56;;;15.86;69.93
38620;BME280;24376;51.986;4.662;2022-09-12T07:12:11;104154.97;;;15.94;70.54
38620;BME280;24376;51.986;4.662;2022-09-12T07:14:36;104009.94;;;16.00;71.40
38620;BME280;24376;51.986;4.662;2022-09-12T07:17:01;103867.44;;;16.05;72.61
38620;BME280;24376;51.986;4.662;2022-09-12T07:19:27;103792.47;;;16.03;73.35
38620;BME280;24376;51.986;4.662;2022-09-12T07:21:52;103674.19;;;16.16;74.89
38620;BME280;24376;51.986;4.662;2022-09-12T07:24:17;103576.94;;;16.29;76.67
38620;BME280;24376;51.986;4.662;2022-09-12T07:26:42;103493.66;;;16.38;78.83
38620;BME280;24376;51.986;4.662;2022-09-12T07:29:11;103437.81;;;16.52;82.33
38620;BME280;24376;51.986;4.662;2022-09-12T07:31:37;103344.03;;;16.64;87.67
38620;BME280;24376;51.986;4.662;2022-09-12T07:34:05;103274.72;;;16.73;93.39
38620;BME280;24376;51.986;4.662;2022-09-12T07:36:30;103692.44;;;16.85;74.43
38620;BME280;24376;51.986;4.662;2022-09-12T07:38:58;103567.47;;;16.92;76.42
38620;BME280;24376;51.986;4.662;2022-09-12T07:41:25;103455.00;;;17.03;78.30
38620;BME280;24376;51.986;4.662;2022-09-12T07:43:55;103376.06;;;17.15;81.45
38620;BME280;24376;51.986;4.662;2022-09-12T07:46:21;103243.34;;;17.28;86.36
38620;BME280;24376;51.986;4.662;2022-09-12T07:48:50;103138.72;;;17.41;96.02
38620;BME280;24376;51.986;4.662;2022-09-12T07:51:20;103051.22;;;17.65;100.00
38620;BME280;24376;51.986;4.662;2022-09-12T07:53:46;102954.41;;;17.75;100.00
38620;BME280;24376;51.986;4.662;2022-09-12T07:56:13;102867.03;;;17.78;100.00
38620;BME280;24376;51.986;4.662;2022-09-12T07:58:39;102755.69;;;17.75;100.00
38620;BME280;24376;51.986;4.662;2022-09-12T08:01:09;102631.34;;;17.83;100.00
38620;BME280;24376;51.986;4.662;2022-09-12T08:03:35;102508.72;;;17.91;100.00
38620;BME280;24376;51.986;4.662;2022-09-12T08:06:04;102403.13;;;18.10;100.00
38620;BME280;24376;51.986;4.662;2022-09-12T08:08:29;102278.66;;;18.16;100.00
38620;BME280;24376;51.986;4.662;2022-09-12T08:11:00;102164.66;;;18.16;100.00
38620;BME280;24376;51.986;4.662;2022-09-12T08:13:26;102123.25;;;18.25;100.00
38620;BME280;24376;51.986;4.662;2022-09-12T08:15:55;102019.91;;;18.31;100.00
38620;BME280;24376;51.986;4.662;2022-09-12T08:18:21;101940.50;;;18.42;100.00
38620;BME280;24376;51.986;4.662;2022-09-12T08:20:46;101873.47;;;18.55;100.00
38620;BME280;24376;51.986;4.662;2022-09-12T08:23:11;101818.81;;;18.71;100.00
38620;BME280;24376;51.986;4.662;2022-09-12T08:25:36;101710.06;;;18.74;100.00
38620;BME280;24376;51.986;4.662;2022-09-12T08:28:01;101645.59;;;18.91;100.00
38620;BME280;24376;51.986;4.662;2022-09-12T08:30:27;101589.91;;;19.03;100.00
38620;BME280;24376;51.986;4.662;2022-09-12T08:32:53;101500.56;;;19.08;100.00
38620;BME280;24376;51.986;4.662;2022-09-12T08:35:18;101436.84;;;19.16;100.00
38620;BME280;24376;51.986;4.662;2022-09-12T08:37:43;101393.47;;;19.27;100.00
38620;BME280;24376;51.986;4.662;2022-09-12T08:40:13;101347.41;;;19.44;100.00
38620;BME280;24376;51.986;4.662;2022-09-12T08:42:59;101334.13;;;19.50;100.00
38620;BME280;24376;51.986;4.662;2022-09-12T08:45:29;101302.22;;;19.56;100.00
38620;BME280;24376;51.986;4.662;2022-09-12T08:47:57;101311.06;;;19.65;100.00
38620;BME280;24376;51.986;4.662;2022-09-12T08:50:22;101311.97;;;19.63;100.00
38620;BME280;24376;51.986;4.662;2022-09-12T08:53:01;101296.06;;;19.60;100.00
38620;BME280;24376;51.986;4.662;2022-09-12T08:58:13;101267.59;;;19.83;100.00
38620;BME280;24376;51.986;4.662;2022-09-12T09:00:46;101250.72;;;19.87;100.00
38620;BME280;24376;51.986;4.662;2022-09-12T09:05:50;101178.84;;;20.04;100.00
38620;BME280;24376;51.986;4.662;2022-09-12T09:13:45;101094.41;;;20.34;100.00
38620;BME280;24376;51.986;4.662;2022-09-12T09:16:39;101068.69;;;20.34;100.00
38620;BME280;24376;51.986;4.662;2022-09-12T09:19:16;101045.50;;;20.50;100.00
38620;BME280;24376;51.986;4.662;2022-09-12T09:21:50;101047.19;;;20.57;100.00
38620;BME280;24376;51.986;4.662;2022-09-12T09:24:18;101037.22;;;20.76;100.00
38620;BME280;24376;51.986;4.662;2022-09-12T09:26:52;101032.78;;;20.75;100.00
38620;BME280;24376;51.986;4.662;2022-09-12T09:29:21;101029.25;;;20.73;100.00
38620;BME280;24376;51.986;4.662;2022-09-12T09:31:50;101013.28;;;20.73;100.00
38620;BME280;24376;51.986;4.662;2022-09-12T09:34:20;101027.38;;;20.83;100.00
38620;BME280;24376;51.986;4.662;2022-09-12T09:44:33;101097.03;;;21.15;100.00
38620;BME280;24376;51.986;4.662;2022-09-12T09:46:59;101122.66;;;21.24;100.00
38620;BME280;24376;51.986;4.662;2022-09-12T09:49:25;101130.63;;;21.30;100.00
38620;BME280;24376;51.986;4.662;2022-09-12T09:51:52;101125.28;;;21.30;100.00
38620;BME280;24376;51.986;4.662;2022-09-12T09:56:43;101107.94;;;21.62;100.00
38620;BME280;24376;51.986;4.662;2022-09-12T09:59:18;101052.75;;;21.68;100.00
38620;BME280;24376;51.986;4.662;2022-09-12T10:01:47;101034.31;;;21.58;100.00
38620;BME280;24376;51.986;4.662;2022-09-12T10:04:17;101035.78;;;21.74;100.00
38620;BME280;24376;51.986;4.662;2022-09-12T10:06:42;101040.28;;;21.72;100.00
38620;BME280;24376;51.986;4.662;2022-09-12T10:11:39;101075.19;;;22.09;100.00
38620;BME280;24376;51.986;4.662;2022-09-12T10:14:04;101066.28;;;22.09;100.00
38620;BME280;24376;51.986;4.662;2022-09-12T10:16:30;101104.28;;;22.24;100.00
38620;BME280;24376;51.986;4.662;2022-09-12T10:18:57;101112.97;;;22.36;100.00
38620;BME280;24376;51.986;4.662;2022-09-12T10:21:39;101096.72;;;22.48;100.00
38620;BME280;24376;51.986;4.662;2022-09-12T10:26:37;101046.31;;;22.77;100.00
38620;BME280;24376;51.986;4.662;2022-09-12T10:29:09;101028.09;;;22.99;100.00
38620;BME280;24376;51.986;4.662;2022-09-12T10:31:40;101003.13;;;23.00;100.00
38620;BME280;24376;51.986;4.662;2022-09-12T10:34:09;100991.03;;;22.82;100.00
38620;BME280;24376;51.986;4.662;2022-09-12T10:36:43;103819.28;;;22.75;100.00
38620;BME280;24376;51.986;4.662;2022-09-12T10:39:11;102513.09;;;22.50;100.00
38620;BME280;24376;51.986;4.662;2022-09-12T10:41:41;101856.47;;;22.46;100.00
38620;BME280;24376;51.986;4.662;2022-09-12T10:44:06;101530.00;;;22.42;100.00
38620;BME280;24376;51.986;4.662;2022-09-12T10:46:34;101419.56;;;22.55;100.00
38620;BME280;24376;51.986;4.662;2022-09-12T10:51:43;101538.31;;;22.90;100.00
38620;BME280;24376;51.986;4.662;2022-09-12T10:54:09;101547.03;;;23.04;100.00
38620;BME280;24376;51.986;4.662;2022-09-12T10:59:37;101630.41;;;23.31;100.00
38620;BME280;24376;51.986;4.662;2022-09-12T11:02:16;101559.94;;;23.35;100.00
38620;BME280;24376;51.986;4.662;2022-09-12T11:04:52;101663.88;;;23.56;100.00
38620;BME280;24376;51.986;4.662;2022-09-12T11:12:40;101743.69;;;23.87;100.00
38620;BME280;24376;51.986;4.662;2022-09-12T11:22:44;101861.63;;;24.35;100.00
38620;BME280;24376;51.986;4.662;2022-09-12T11:25:25;101898.06;;;24.45;100.00
38620;BME280;24376;51.986;4.662;2022-09-12T11:30:49;100776.34;;;24.19;100.00
38620;BME280;24376;51.986;4.662;2022-09-12T11:33:23;100033.28;;;24.03;100.00
38620;BME280;24376;51.986;4.662;2022-09-12T11:35:53;100109.34;;;24.18;100.00
38620;BME280;24376;51.986;4.662;2022-09-12T11:38:27;100050.78;;;24.10;100.00
38620;BME280;24376;51.986;4.662;2022-09-12T11:40:56;100192.63;;;24.31;100.00
38620;BME280;24376;51.986;4.662;2022-09-12T11:45:48;100340.06;;;24.48;100.00
38620;BME280;24376;51.986;4.662;2022-09-12T11:48:32;100481.06;;;24.69;100.00
38620;BME280;24376;51.986;4.662;2022-09-12T11:50:59;100569.19;;;24.77;100.00
38620;BME280;24376;51.986;4.662;2022-09-12T11:53:28;100517.66;;;24.71;100.00
38620;BME280;24376;51.986;4.662;2022-09-12T11:58:21;100438.44;;;24.65;100.00
38620;BME280;24376;51.986;4.662;2022-09-12T12:00:52;100567.38;;;24.78;100.00
38620;BME280;24376;51.986;4.662;2022-09-12T12:03:36;100589.50;;;24.83;100.00
38620;BME280;24376;51.986;4.662;2022-09-12T12:08:30;100709.47;;;24.98;100.00
38620;BME280;24376;51.986;4.662;2022-09-12T12:10:57;100843.75;;;25.15;100.00
38620;BME280;24376;51.986;4.662;2022-09-12T12:13:39;100850.03;;;25.14;100.00
38620;BME280;24376;51.986;4.662;2022-09-12T12:16:14;100874.06;;;25.17;100.00
38620;BME280;24376;51.986;4.662;2022-09-12T12:18:42;101165.94;;;25.55;100.00
38620;BME280;24376;51.986;4.662;2022-09-12T12:21:19;101362.75;;;25.82;100.00
38620;BME280;24376;51.986;4.662;2022-09-12T12:24:01;101240.75;;;25.64;100.00
38620;BME280;24376;51.986;4.662;2022-09-12T12:29:03;101425.22;;;25.87;100.00
38620;BME280;24376;51.986;4.662;2022-09-12T12:31:29;101498.41;;;25.92;100.00
38620;BME280;24376;51.986;4.662;2022-09-12T12:33:54;101575.13;;;25.99;100.00
38620;BME280;24376;51.986;4.662;2022-09-12T12:36:34;101637.63;;;26.04;100.00
38620;BME280;24376;51.986;4.662;2022-09-12T12:39:53;101734.09;;;26.10;100.00
38620;BME280;24376;51.986;4.662;2022-09-12T12:41:45;101860.91;;;26.21;100.00
38620;BME280;24376;51.986;4.662;2022-09-12T12:47:15;102018.91;;;26.41;100.00
38620;BME280;24376;51.986;4.662;2022-09-12T12:49:59;102124.31;;;26.54;100.00
38620;BME280;24376;51.986;4.662;2022-09-12T12:52:26;101975.16;;;26.35;100.00
38620;BME280;24376;51.986;4.662;2022-09-12T12:54:54;101573.72;;;25.84;100.00
38620;BME280;24376;51.986;4.662;2022-09-12T12:59:47;101771.75;;;26.07;100.00
38620;BME280;24376;51.986;4.662;2022-09-12T13:02:17;102114.56;;;26.50;100.00
38620;BME280;24376;51.986;4.662;2022-09-12T13:04:44;102037.72;;;26.40;100.00
38620;BME280;24376;51.986;4.662;2022-09-12T13:07:12;101938.69;;;26.24;100.00
38620;BME280;24376;51.986;4.662;2022-09-12T13:09:45;102048.50;;;26.37;100.00
38620;BME280;24376;51.986;4.662;2022-09-12T13:12:18;101986.97;;;26.26;100.00
38620;BME280;24376;51.986;4.662;2022-09-12T13:20:00;101984.31;;;26.24;100.00
38620;BME280;24376;51.986;4.662;2022-09-12T13:22:36;101970.06;;;26.22;100.00
38620;BME280;24376;51.986;4.662;2022-09-12T13:25:15;101840.69;;;26.05;100.00
38620;BME280;24376;51.986;4.662;2022-09-12T13:30:29;102495.47;;;26.85;100.00
38620;BME280;24376;51.986;4.662;2022-09-12T13:32:58;102499.94;;;26.86;100.00
38620;BME280;24376;51.986;4.662;2022-09-12T13:35:41;102454.34;;;26.78;100.00
38620;BME280;24376;51.986;4.662;2022-09-12T13:40:47;102192.47;;;26.50;100.00
38620;BME280;24376;51.986;4.662;2022-09-12T13:43:20;102516.03;;;26.88;100.00
38620;BME280;24376;51.986;4.662;2022-09-12T13:45:51;102823.91;;;27.25;100.00
38620;BME280;24376;51.986;4.662;2022-09-12T13:48:22;102838.22;;;27.24;100.00
38620;BME280;24376;51.986;4.662;2022-09-12T13:50:52;103183.16;;;27.63;100.00
38620;BME280;24376;51.986;4.662;2022-09-12T13:53:20;103072.94;;;27.49;100.00
38620;BME280;24376;51.986;4.662;2022-09-12T13:55:48;103337.41;;;27.80;100.00
38620;BME280;24376;51.986;4.662;2022-09-12T14:00:41;103629.06;;;28.02;100.00
38620;BME280;24376;51.986;4.662;2022-09-12T14:03:23;104215.78;;;28.71;100.00
38620;BME280;24376;51.986;4.662;2022-09-12T14:06:07;105132.72;;;29.78;100.00
38620;BME280;24376;51.986;4.662;2022-09-12T14:08:33;105636.41;;;30.30;100.00
38620;BME280;24376;51.986;4.662;2022-09-12T14:10:58;106265.97;;;31.07;100.00
38620;BME280;24376;51.986;4.662;2022-09-12T14:13:24;106321.19;;;31.12;100.00
38620;BME280;24376;51.986;4.662;2022-09-12T14:15:50;106477.88;;;31.28;100.00
38620;BME280;24376;51.986;4.662;2022-09-12T14:18:27;105894.75;;;30.54;100.00
38620;BME280;24376;51.986;4.662;2022-09-12T14:20:52;105327.28;;;29.78;100.00
38620;BME280;24376;51.986;4.662;2022-09-12T14:23:24;105398.47;;;29.80;100.00
38620;BME280;24376;51.986;4.662;2022-09-12T14:25:54;105435.44;;;29.81;100.00
38620;BME280;24376;51.986;4.662;2022-09-12T14:28:20;105193.56;;;29.52;100.00
38620;BME280;24376;51.986;4.662;2022-09-12T14:30:59;105346.91;;;29.68;100.00
38620;BME280;24376;51.986;4.662;2022-09-12T14:33:25;105537.41;;;29.91;100.00
38620;BME280;24376;51.986;4.662;2022-09-12T14:35:51;105592.44;;;29.97;100.00
38620;BME280;24376;51.986;4.662;2022-09-12T14:38:30;105834.63;;;30.26;100.00
38620;BME280;24376;51.986;4.662;2022-09-12T14:40:59;105539.19;;;29.91;100.00
38620;BME280;24376;51.986;4.662;2022-09-12T14:43:27;105429.97;;;29.78;100.00
38620;BME280;24376;51.986;4.662;2022-09-12T14:46:05;105314.47;;;29.65;100.00
38620;BME280;24376;51.986;4.662;2022-09-12T14:48:33;105183.63;;;29.51;100.00